sensor_id;sensor_type;location;lat;lon;timestamp;temperature;humidity
48416;DHT22;34227;51.840;4.146;2023-07-13T00:01:29;20.40;76.20
48416;DHT22;34227;51.840;4.146;2023-07-13T00:03:57;20.40;76.20
48416;DHT22;34227;51.840;4.146;2023-07-13T00:06:23;20.40;76.40
48416;DHT22;34227;51.840;4.146;2023-07-13T00:08:49;20.40;76.50
48416;DHT22;34227;51.840;4.146;2023-07-13T00:11:15;20.40;76.60
48416;DHT22;34227;51.840;4.146;2023-07-13T00:13:41;20.40;76.60
48416;DHT22;34227;51.840;4.146;2023-07-13T00:16:08;20.40;76.70
48416;DHT22;34227;51.840;4.146;2023-07-13T00:18:33;20.40;76.70
48416;DHT22;34227;51.840;4.146;2023-07-13T00:20:59;20.30;76.70
48416;DHT22;34227;51.840;4.146;2023-07-13T00:23:31;20.30;76.80
48416;DHT22;34227;51.840;4.146;2023-07-13T00:25:59;20.30;76.70
48416;DHT22;34227;51.840;4.146;2023-07-13T00:28:25;20.30;76.70
48416;DHT22;34227;51.840;4.146;2023-07-13T00:30:50;20.20;76.60
48416;DHT22;34227;51.840;4.146;2023-07-13T00:33:16;20.20;76.80
48416;DHT22;34227;51.840;4.146;2023-07-13T00:35:41;20.20;76.70
48416;DHT22;34227;51.840;4.146;2023-07-13T00:38:09;20.20;76.80
48416;DHT22;34227;51.840;4.146;2023-07-13T00:40:35;20.20;76.80
48416;DHT22;34227;51.840;4.146;2023-07-13T00:43:00;20.20;76.70
48416;DHT22;34227;51.840;4.146;2023-07-13T00:47:52;20.10;76.70
48416;DHT22;34227;51.840;4.146;2023-07-13T00:50:17;20.00;76.60
48416;DHT22;34227;51.840;4.146;2023-07-13T00:52:45;20.00;76.50
48416;DHT22;34227;51.840;4.146;2023-07-13T00:55:11;20.00;76.40
48416;DHT22;34227;51.840;4.146;2023-07-13T08:35:22;21.70;84.00
48416;DHT22;34227;51.840;4.146;2023-07-13T08:37:48;21.80;84.40
48416;DHT22;34227;51.840;4.146;2023-07-13T08:40:14;21.90;84.00
48416;DHT22;34227;51.840;4.146;2023-07-13T08:42:42;22.00;83.90
48416;DHT22;34227;51.840;4.146;2023-07-13T08:45:22;22.10;84.30
48416;DHT22;34227;51.840;4.146;2023-07-13T08:47:51;22.10;84.00
48416;DHT22;34227;51.840;4.146;2023-07-13T08:50:19;22.10;84.50
48416;DHT22;34227;51.840;4.146;2023-07-13T08:52:46;22.10;84.70
48416;DHT22;34227;51.840;4.146;2023-07-13T08:55:20;22.10;84.40
48416;DHT22;34227;51.840;4.146;2023-07-13T08:57:48;22.10;84.90
48416;DHT22;34227;51.840;4.146;2023-07-13T09:00:15;22.20;84.40
48416;DHT22;34227;51.840;4.146;2023-07-13T09:02:43;22.30;84.90
48416;DHT22;34227;51.840;4.146;2023-07-13T09:05:15;22.50;85.50
48416;DHT22;34227;51.840;4.146;2023-07-13T09:15:21;23.80;84.00
48416;DHT22;34227;51.840;4.146;2023-07-13T09:17:51;24.10;82.70
48416;DHT22;34227;51.840;4.146;2023-07-13T09:23:21;24.50;82.50
48416;DHT22;34227;51.840;4.146;2023-07-13T09:26:00;24.70;82.10
48416;DHT22;34227;51.840;4.146;2023-07-13T09:28:45;25.00;81.90
48416;DHT22;34227;51.840;4.146;2023-07-13T09:31:21;25.20;81.10
48416;DHT22;34227;51.840;4.146;2023-07-13T09:33:49;25.40;80.60
48416;DHT22;34227;51.840;4.146;2023-07-13T09:41:46;26.00;79.60
48416;DHT22;34227;51.840;4.146;2023-07-13T09:44:15;26.10;78.80
48416;DHT22;34227;51.840;4.146;2023-07-13T09:46:45;26.30;78.20
48416;DHT22;34227;51.840;4.146;2023-07-13T09:49:14;26.40;77.90
48416;DHT22;34227;51.840;4.146;2023-07-13T09:54:44;26.60;78.20
48416;DHT22;34227;51.840;4.146;2023-07-13T09:57:14;26.90;77.60
48416;DHT22;34227;51.840;4.146;2023-07-13T09:59:43;27.20;77.10
48416;DHT22;34227;51.840;4.146;2023-07-13T10:02:25;27.40;76.00
48416;DHT22;34227;51.840;4.146;2023-07-13T10:05:09;27.60;75.30
48416;DHT22;34227;51.840;4.146;2023-07-13T10:07:39;27.70;74.80
48416;DHT22;34227;51.840;4.146;2023-07-13T10:10:13;28.00;73.80
48416;DHT22;34227;51.840;4.146;2023-07-13T10:12:48;28.20;73.20
48416;DHT22;34227;51.840;4.146;2023-07-13T10:15:16;28.30;74.00
48416;DHT22;34227;51.840;4.146;2023-07-13T10:17:42;28.50;73.00
48416;DHT22;34227;51.840;4.146;2023-07-13T10:20:09;28.80;72.60
48416;DHT22;34227;51.840;4.146;2023-07-13T10:25:23;29.10;70.20
48416;DHT22;34227;51.840;4.146;2023-07-13T10:27:53;29.30;69.90
48416;DHT22;34227;51.840;4.146;2023-07-13T10:30:21;29.40;69.30
48416;DHT22;34227;51.840;4.146;2023-07-13T10:32:48;29.60;69.40
48416;DHT22;34227;51.840;4.146;2023-07-13T10:35:15;29.80;67.80
48416;DHT22;34227;51.840;4.146;2023-07-13T10:37:55;30.00;67.10
48416;DHT22;34227;51.840;4.146;2023-07-13T10:40:31;30.10;66.90
48416;DHT22;34227;51.840;4.146;2023-07-13T10:42:59;30.20;66.00
48416;DHT22;34227;51.840;4.146;2023-07-13T10:45:33;30.40;66.10
48416;DHT22;34227;51.840;4.146;2023-07-13T10:47:59;30.50;65.90
48416;DHT22;34227;51.840;4.146;2023-07-13T10:50:26;30.60;64.90
48416;DHT22;34227;51.840;4.146;2023-07-13T10:52:53;30.70;64.50
48416;DHT22;34227;51.840;4.146;2023-07-13T10:58:38;30.90;62.90
48416;DHT22;34227;51.840;4.146;2023-07-13T11:03:31;31.10;61.70
48416;DHT22;34227;51.840;4.146;2023-07-13T11:06:08;31.20;62.40
48416;DHT22;34227;51.840;4.146;2023-07-13T11:08:38;31.10;61.50
48416;DHT22;34227;51.840;4.146;2023-07-13T11:11:31;31.20;61.50
48416;DHT22;34227;51.840;4.146;2023-07-13T11:18:40;31.10;59.60
48416;DHT22;34227;51.840;4.146;2023-07-13T11:21:17;31.10;59.50
48416;DHT22;34227;51.840;4.146;2023-07-13T11:23:43;31.10;58.90
48416;DHT22;34227;51.840;4.146;2023-07-13T11:28:56;30.90;58.30
48416;DHT22;34227;51.840;4.146;2023-07-13T11:31:22;30.90;57.50
48416;DHT22;34227;51.840;4.146;2023-07-13T11:33:56;30.80;57.50
48416;DHT22;34227;51.840;4.146;2023-07-13T11:36:23;30.70;57.00
48416;DHT22;34227;51.840;4.146;2023-07-13T11:38:56;30.60;56.80
48416;DHT22;34227;51.840;4.146;2023-07-13T11:41:25;30.50;56.70
48416;DHT22;34227;51.840;4.146;2023-07-13T11:43:55;30.30;57.00
48416;DHT22;34227;51.840;4.146;2023-07-13T11:46:28;30.00;52.70
48416;DHT22;34227;51.840;4.146;2023-07-13T11:48:54;29.50;53.20
48416;DHT22;34227;51.840;4.146;2023-07-13T11:51:33;29.50;55.40
48416;DHT22;34227;51.840;4.146;2023-07-13T11:54:02;29.50;56.60
48416;DHT22;34227;51.840;4.146;2023-07-13T11:56:28;29.40;57.10
48416;DHT22;34227;51.840;4.146;2023-07-13T11:58:55;29.40;57.20
48416;DHT22;34227;51.840;4.146;2023-07-13T12:01:25;29.40;57.40
48416;DHT22;34227;51.840;4.146;2023-07-13T12:03:51;29.30;57.60
48416;DHT22;34227;51.840;4.146;2023-07-13T12:06:28;29.20;57.80
48416;DHT22;34227;51.840;4.146;2023-07-13T12:08:58;29.10;57.70
48416;DHT22;34227;51.840;4.146;2023-07-13T12:11:24;29.00;58.10
48416;DHT22;34227;51.840;4.146;2023-07-13T12:13:49;28.90;57.90
48416;DHT22;34227;51.840;4.146;2023-07-13T12:18:47;28.70;58.30
48416;DHT22;34227;51.840;4.146;2023-07-13T12:21:14;28.70;58.60
48416;DHT22;34227;51.840;4.146;2023-07-13T12:23:42;28.60;58.70
48416;DHT22;34227;51.840;4.146;2023-07-13T12:26:09;28.50;58.80
48416;DHT22;34227;51.840;4.146;2023-07-13T12:28:37;28.40;59.00
48416;DHT22;34227;51.840;4.146;2023-07-13T12:31:08;28.30;59.30
48416;DHT22;34227;51.840;4.146;2023-07-13T12:33:44;28.30;59.40
48416;DHT22;34227;51.840;4.146;2023-07-13T12:36:10;28.10;59.30
48416;DHT22;34227;51.840;4.146;2023-07-13T12:38:38;28.10;59.50
48416;DHT22;34227;51.840;4.146;2023-07-13T12:41:05;28.00;59.30
48416;DHT22;34227;51.840;4.146;2023-07-13T12:43:34;28.00;59.50
48416;DHT22;34227;51.840;4.146;2023-07-13T12:46:15;27.90;59.60
48416;DHT22;34227;51.840;4.146;2023-07-13T12:48:42;27.80;59.60
48416;DHT22;34227;51.840;4.146;2023-07-13T12:51:12;27.80;59.80
48416;DHT22;34227;51.840;4.146;2023-07-13T12:53:57;27.70;59.70
48416;DHT22;34227;51.840;4.146;2023-07-13T12:56:25;27.70;60.00
48416;DHT22;34227;51.840;4.146;2023-07-13T12:58:57;27.60;60.00
48416;DHT22;34227;51.840;4.146;2023-07-13T13:01:26;27.60;60.10
48416;DHT22;34227;51.840;4.146;2023-07-13T13:03:52;27.50;59.90
48416;DHT22;34227;51.840;4.146;2023-07-13T13:06:23;27.50;59.90
48416;DHT22;34227;51.840;4.146;2023-07-13T13:08:50;27.50;60.00
48416;DHT22;34227;51.840;4.146;2023-07-13T13:11:17;27.40;59.90
48416;DHT22;34227;51.840;4.146;2023-07-13T13:13:53;27.40;60.10
48416;DHT22;34227;51.840;4.146;2023-07-13T13:19:16;27.40;60.00
48416;DHT22;34227;51.840;4.146;2023-07-13T13:21:43;27.40;60.00
48416;DHT22;34227;51.840;4.146;2023-07-13T13:24:31;27.50;59.90
48416;DHT22;34227;51.840;4.146;2023-07-13T13:26:56;27.50;59.70
48416;DHT22;34227;51.840;4.146;2023-07-13T13:29:23;27.60;59.60
48416;DHT22;34227;51.840;4.146;2023-07-13T13:31:52;27.60;59.60
48416;DHT22;34227;51.840;4.146;2023-07-13T13:34:18;27.70;59.20
48416;DHT22;34227;51.840;4.146;2023-07-13T13:36:44;27.70;59.60
48416;DHT22;34227;51.840;4.146;2023-07-13T13:39:16;27.80;59.30
48416;DHT22;34227;51.840;4.146;2023-07-13T13:41:43;27.80;59.00
48416;DHT22;34227;51.840;4.146;2023-07-13T13:44:09;27.90;59.00
48416;DHT22;34227;51.840;4.146;2023-07-13T13:46:35;27.90;59.10
48416;DHT22;34227;51.840;4.146;2023-07-13T13:49:00;28.00;59.00
48416;DHT22;34227;51.840;4.146;2023-07-13T13:51:26;28.00;58.80
48416;DHT22;34227;51.840;4.146;2023-07-13T13:53:52;28.10;58.70
48416;DHT22;34227;51.840;4.146;2023-07-13T13:56:19;28.10;58.70
48416;DHT22;34227;51.840;4.146;2023-07-13T13:58:45;28.10;58.30
48416;DHT22;34227;51.840;4.146;2023-07-13T14:01:21;28.10;58.10
48416;DHT22;34227;51.840;4.146;2023-07-13T14:03:50;28.20;58.30
48416;DHT22;34227;51.840;4.146;2023-07-13T14:06:17;28.20;58.00
48416;DHT22;34227;51.840;4.146;2023-07-13T14:08:43;28.20;58.00
48416;DHT22;34227;51.840;4.146;2023-07-13T14:11:12;28.20;58.10
48416;DHT22;34227;51.840;4.146;2023-07-13T14:13:39;28.30;58.20
48416;DHT22;34227;51.840;4.146;2023-07-13T14:16:14;28.30;58.20
48416;DHT22;34227;51.840;4.146;2023-07-13T14:18:40;28.30;58.10
48416;DHT22;34227;51.840;4.146;2023-07-13T14:21:11;28.40;58.10
48416;DHT22;34227;51.840;4.146;2023-07-13T14:23:37;28.40;58.20
48416;DHT22;34227;51.840;4.146;2023-07-13T14:26:06;28.40;58.10
48416;DHT22;34227;51.840;4.146;2023-07-13T14:28:33;28.50;58.00
48416;DHT22;34227;51.840;4.146;2023-07-13T14:30:58;28.40;58.10
48416;DHT22;34227;51.840;4.146;2023-07-13T14:33:24;28.40;58.40
48416;DHT22;34227;51.840;4.146;2023-07-13T14:35:50;28.40;57.70
48416;DHT22;34227;51.840;4.146;2023-07-13T14:38:17;28.40;58.00
48416;DHT22;34227;51.840;4.146;2023-07-13T14:40:43;28.40;58.00
48416;DHT22;34227;51.840;4.146;2023-07-13T14:43:13;28.40;57.90
48416;DHT22;34227;51.840;4.146;2023-07-13T14:45:48;28.40;58.10
48416;DHT22;34227;51.840;4.146;2023-07-13T14:48:23;28.30;57.90
48416;DHT22;34227;51.840;4.146;2023-07-13T14:50:57;28.30;57.90
48416;DHT22;34227;51.840;4.146;2023-07-13T14:53:30;28.30;57.90
48416;DHT22;34227;51.840;4.146;2023-07-13T14:56:12;28.20;57.60
48416;DHT22;34227;51.840;4.146;2023-07-13T14:58:38;28.10;57.90
48416;DHT22;34227;51.840;4.146;2023-07-13T15:01:09;28.10;57.90
48416;DHT22;34227;51.840;4.146;2023-07-13T15:03:37;28.10;57.90
48416;DHT22;34227;51.840;4.146;2023-07-13T15:06:07;28.10;57.90
48416;DHT22;34227;51.840;4.146;2023-07-13T15:08:34;28.10;58.00
48416;DHT22;34227;51.840;4.146;2023-07-13T15:11:00;28.10;57.90
48416;DHT22;34227;51.840;4.146;2023-07-13T15:13:25;28.10;57.90
48416;DHT22;34227;51.840;4.146;2023-07-13T15:15:51;28.10;58.00
48416;DHT22;34227;51.840;4.146;2023-07-13T15:18:18;28.10;58.10
48416;DHT22;34227;51.840;4.146;2023-07-13T15:20:45;28.10;58.00
48416;DHT22;34227;51.840;4.146;2023-07-13T15:23:12;28.00;58.10
48416;DHT22;34227;51.840;4.146;2023-07-13T15:25:39;28.00;57.90
48416;DHT22;34227;51.840;4.146;2023-07-13T15:28:04;27.90;58.00
48416;DHT22;34227;51.840;4.146;2023-07-13T15:30:31;27.90;57.50
48416;DHT22;34227;51.840;4.146;2023-07-13T15:32:57;27.90;58.00
48416;DHT22;34227;51.840;4.146;2023-07-13T15:35:26;27.80;58.00
48416;DHT22;34227;51.840;4.146;2023-07-13T15:37:52;27.80;58.10
48416;DHT22;34227;51.840;4.146;2023-07-13T15:40:17;27.70;58.10
48416;DHT22;34227;51.840;4.146;2023-07-13T15:42:44;27.60;58.10
48416;DHT22;34227;51.840;4.146;2023-07-13T15:45:20;27.60;58.20
48416;DHT22;34227;51.840;4.146;2023-07-13T15:47:47;27.50;58.30
48416;DHT22;34227;51.840;4.146;2023-07-13T15:50:13;27.50;58.00
48416;DHT22;34227;51.840;4.146;2023-07-13T15:52:39;27.40;58.50
48416;DHT22;34227;51.840;4.146;2023-07-13T15:55:08;27.30;58.60
48416;DHT22;34227;51.840;4.146;2023-07-13T15:57:34;27.20;58.60
48416;DHT22;34227;51.840;4.146;2023-07-13T16:00:00;27.20;58.70
48416;DHT22;34227;51.840;4.146;2023-07-13T16:02:25;27.10;58.80
48416;DHT22;34227;51.840;4.146;2023-07-13T16:04:51;27.00;59.00
48416;DHT22;34227;51.840;4.146;2023-07-13T16:07:16;27.00;59.20
48416;DHT22;34227;51.840;4.146;2023-07-13T16:09:43;26.90;59.10
48416;DHT22;34227;51.840;4.146;2023-07-13T16:12:10;26.80;59.20
48416;DHT22;34227;51.840;4.146;2023-07-13T16:14:37;26.80;59.30
48416;DHT22;34227;51.840;4.146;2023-07-13T16:19:28;26.60;59.10
48416;DHT22;34227;51.840;4.146;2023-07-13T16:21:55;26.50;59.60
48416;DHT22;34227;51.840;4.146;2023-07-13T16:24:22;26.50;59.90
48416;DHT22;34227;51.840;4.146;2023-07-13T16:26:50;26.40;60.00
48416;DHT22;34227;51.840;4.146;2023-07-13T16:29:20;26.30;60.20
48416;DHT22;34227;51.840;4.146;2023-07-13T16:34:22;26.10;60.40
48416;DHT22;34227;51.840;4.146;2023-07-13T16:36:48;26.00;60.50
48416;DHT22;34227;51.840;4.146;2023-07-13T16:39:14;26.00;60.70
48416;DHT22;34227;51.840;4.146;2023-07-13T16:41:41;26.00;60.90
48416;DHT22;34227;51.840;4.146;2023-07-13T16:44:16;25.90;60.90
48416;DHT22;34227;51.840;4.146;2023-07-13T16:46:44;25.80;61.10
48416;DHT22;34227;51.840;4.146;2023-07-13T16:49:30;25.80;61.20
48416;DHT22;34227;51.840;4.146;2023-07-13T16:52:00;25.70;61.50
48416;DHT22;34227;51.840;4.146;2023-07-13T16:54:33;25.60;62.30
48416;DHT22;34227;51.840;4.146;2023-07-13T16:56:59;25.60;61.70
48416;DHT22;34227;51.840;4.146;2023-07-13T16:59:33;25.50;61.60
48416;DHT22;34227;51.840;4.146;2023-07-13T17:02:00;25.50;61.60
48416;DHT22;34227;51.840;4.146;2023-07-13T17:04:27;25.40;62.00
48416;DHT22;34227;51.840;4.146;2023-07-13T17:06:53;25.30;62.00
48416;DHT22;34227;51.840;4.146;2023-07-13T17:09:20;25.30;62.20
48416;DHT22;34227;51.840;4.146;2023-07-13T17:11:46;25.30;62.30
48416;DHT22;34227;51.840;4.146;2023-07-13T17:14:13;25.20;62.30
48416;DHT22;34227;51.840;4.146;2023-07-13T17:16:40;25.20;62.60
48416;DHT22;34227;51.840;4.146;2023-07-13T17:19:10;25.10;62.60
48416;DHT22;34227;51.840;4.146;2023-07-13T17:21:36;25.00;62.90
48416;DHT22;34227;51.840;4.146;2023-07-13T17:24:01;25.00;63.10
48416;DHT22;34227;51.840;4.146;2023-07-13T17:26:27;24.90;63.00
48416;DHT22;34227;51.840;4.146;2023-07-13T17:28:54;24.90;63.20
48416;DHT22;34227;51.840;4.146;2023-07-13T17:31:20;24.90;63.20
48416;DHT22;34227;51.840;4.146;2023-07-13T17:33:46;24.80;63.60
48416;DHT22;34227;51.840;4.146;2023-07-13T17:36:15;24.80;63.50
48416;DHT22;34227;51.840;4.146;2023-07-13T17:38:42;24.70;63.60
48416;DHT22;34227;51.840;4.146;2023-07-13T17:41:11;24.70;63.50
48416;DHT22;34227;51.840;4.146;2023-07-13T17:43:40;24.70;63.70
48416;DHT22;34227;51.840;4.146;2023-07-13T17:46:15;24.60;63.60
48416;DHT22;34227;51.840;4.146;2023-07-13T17:48:42;24.50;63.80
48416;DHT22;34227;51.840;4.146;2023-07-13T17:51:12;24.50;63.70
48416;DHT22;34227;51.840;4.146;2023-07-13T17:53:38;24.50;64.60
48416;DHT22;34227;51.840;4.146;2023-07-13T17:56:08;24.40;63.10
48416;DHT22;34227;51.840;4.146;2023-07-13T17:58:34;24.40;63.60
48416;DHT22;34227;51.840;4.146;2023-07-13T18:01:00;24.30;64.20
48416;DHT22;34227;51.840;4.146;2023-07-13T18:03:26;24.30;63.70
48416;DHT22;34227;51.840;4.146;2023-07-13T18:05:57;24.20;64.10
48416;DHT22;34227;51.840;4.146;2023-07-13T18:08:27;24.20;64.70
48416;DHT22;34227;51.840;4.146;2023-07-13T18:10:54;24.10;63.80
48416;DHT22;34227;51.840;4.146;2023-07-13T18:13:24;24.10;63.90
48416;DHT22;34227;51.840;4.146;2023-07-13T18:15:51;24.00;63.80
48416;DHT22;34227;51.840;4.146;2023-07-13T18:18:19;24.00;64.70
48416;DHT22;34227;51.840;4.146;2023-07-13T18:20:45;23.90;64.70
48416;DHT22;34227;51.840;4.146;2023-07-13T18:23:15;23.90;64.60
48416;DHT22;34227;51.840;4.146;2023-07-13T18:25:45;23.80;65.20
48416;DHT22;34227;51.840;4.146;2023-07-13T18:28:11;23.80;65.10
48416;DHT22;34227;51.840;4.146;2023-07-13T18:30:38;23.70;65.40
48416;DHT22;34227;51.840;4.146;2023-07-13T18:33:04;23.70;65.10
48416;DHT22;34227;51.840;4.146;2023-07-13T18:35:35;23.60;65.80
48416;DHT22;34227;51.840;4.146;2023-07-13T18:38:03;23.60;65.60
48416;DHT22;34227;51.840;4.146;2023-07-13T18:40:29;23.50;65.60
48416;DHT22;34227;51.840;4.146;2023-07-13T18:42:55;23.50;66.30
48416;DHT22;34227;51.840;4.146;2023-07-13T18:45:21;23.40;66.20
48416;DHT22;34227;51.840;4.146;2023-07-13T18:47:48;23.40;66.40
48416;DHT22;34227;51.840;4.146;2023-07-13T18:50:19;23.30;66.70
48416;DHT22;34227;51.840;4.146;2023-07-13T18:52:48;23.30;66.70
48416;DHT22;34227;51.840;4.146;2023-07-13T18:55:14;23.20;66.60
48416;DHT22;34227;51.840;4.146;2023-07-13T18:57:41;23.20;66.60
48416;DHT22;34227;51.840;4.146;2023-07-13T19:00:06;23.10;66.80
48416;DHT22;34227;51.840;4.146;2023-07-13T19:02:32;23.10;66.80
48416;DHT22;34227;51.840;4.146;2023-07-13T19:04:58;23.10;67.10
48416;DHT22;34227;51.840;4.146;2023-07-13T19:07:27;23.00;67.20
48416;DHT22;34227;51.840;4.146;2023-07-13T19:09:55;22.90;66.80
48416;DHT22;34227;51.840;4.146;2023-07-13T19:12:24;22.90;66.90
48416;DHT22;34227;51.840;4.146;2023-07-13T19:14:51;22.90;67.10
48416;DHT22;34227;51.840;4.146;2023-07-13T19:17:18;22.80;67.10
48416;DHT22;34227;51.840;4.146;2023-07-13T19:19:44;22.80;67.10
48416;DHT22;34227;51.840;4.146;2023-07-13T19:22:14;22.80;67.30
48416;DHT22;34227;51.840;4.146;2023-07-13T19:24:41;22.70;67.00
48416;DHT22;34227;51.840;4.146;2023-07-13T19:27:11;22.60;67.10
48416;DHT22;34227;51.840;4.146;2023-07-13T19:29:37;22.60;67.30
48416;DHT22;34227;51.840;4.146;2023-07-13T19:32:04;22.50;67.30
48416;DHT22;34227;51.840;4.146;2023-07-13T19:34:30;22.50;67.40
